createdAt,value
2022-11-21T00:00:49.731Z,80.31
2022-11-21T00:02:51.541Z,80.34
2022-11-21T00:04:53.156Z,80.30
2022-11-21T00:06:57.908Z,79.90
2022-11-21T00:08:59.550Z,79.78
2022-11-21T00:11:01.316Z,79.76
2022-11-21T00:13:03.195Z,79.84
2022-11-21T00:15:05.969Z,79.74
2022-11-21T00:17:07.621Z,79.17
2022-11-21T00:19:09.575Z,78.67
2022-11-21T00:21:16.098Z,78.85
2022-11-21T00:23:17.828Z,78.81
2022-11-21T00:25:19.457Z,78.64
2022-11-21T00:27:21.040Z,78.65
2022-11-21T00:29:22.797Z,79.10
2022-11-21T00:31:25.244Z,79.48
2022-11-21T00:33:26.874Z,79.58
2022-11-21T00:35:34.325Z,80.84
2022-11-21T00:37:36.024Z,81.53
2022-11-21T00:39:37.661Z,81.52
2022-11-21T00:41:39.223Z,81.17
2022-11-21T00:43:40.864Z,80.31
2022-11-21T00:45:45.335Z,80.72
2022-11-21T00:47:46.964Z,81.92
2022-11-21T00:49:48.550Z,82.76
2022-11-21T00:51:50.258Z,83.00
2022-11-21T00:53:51.808Z,82.38
2022-11-21T00:55:53.447Z,81.78
2022-11-21T00:57:54.997Z,81.61
2022-11-21T00:59:56.658Z,81.52
2022-11-21T01:01:58.335Z,81.41
2022-11-21T01:03:59.976Z,80.78
2022-11-21T01:06:12.561Z,80.70
2022-11-21T01:08:14.265Z,81.13
2022-11-21T01:10:15.871Z,80.83
2022-11-21T01:12:17.518Z,81.60
2022-11-21T01:14:19.146Z,82.24
2022-11-21T01:16:23.845Z,84.17
2022-11-21T01:18:35.305Z,84.23
2022-11-21T01:20:40.766Z,84.26
2022-11-21T01:22:42.407Z,83.20
2022-11-21T01:24:44.016Z,82.92
2022-11-21T01:26:45.722Z,83.81
2022-11-21T01:28:47.701Z,85.55
2022-11-21T01:30:49.269Z,85.34
2022-11-21T01:32:51.186Z,86.38
2022-11-21T01:34:58.896Z,87.05
2022-11-21T01:37:01.341Z,86.73
2022-11-21T01:39:05.501Z,86.46
2022-11-21T01:41:08.011Z,87.97
2022-11-21T01:43:15.575Z,87.31
2022-11-21T01:45:48.400Z,87.08
2022-11-21T01:47:50.020Z,86.34
2022-11-21T01:49:52.522Z,84.29
2022-11-21T01:52:01.719Z,85.01
2022-11-21T01:54:09.405Z,85.19
2022-11-21T01:56:11.176Z,85.23
2022-11-21T01:58:13.213Z,84.69
2022-11-21T02:00:22.062Z,83.74
2022-11-21T02:02:28.964Z,83.18
2022-11-21T02:04:32.069Z,83.05
2022-11-21T02:06:34.634Z,82.29
2022-11-21T02:08:37.234Z,80.82
2022-11-21T02:10:40.563Z,81.31
2022-11-21T02:12:50.449Z,82.86
2022-11-21T02:14:53.159Z,83.31
2022-11-21T02:16:57.796Z,83.25
2022-11-21T02:18:59.354Z,83.20
2022-11-21T02:21:15.296Z,82.03
2022-11-21T02:24:03.220Z,82.50
2022-11-21T02:26:05.020Z,82.59
2022-11-21T02:28:08.658Z,82.33
2022-11-21T02:30:10.953Z,81.67
2022-11-21T02:32:24.466Z,80.79
2022-11-21T02:34:26.532Z,81.09
2022-11-21T02:36:37.344Z,81.38
2022-11-21T02:38:39.083Z,81.83
2022-11-21T02:40:44.463Z,81.57
2022-11-21T02:42:52.554Z,82.34
2022-11-21T02:45:01.777Z,81.44
2022-11-21T02:47:03.350Z,82.20
2022-11-21T02:49:07.959Z,82.02
2022-11-21T02:51:09.579Z,81.75
2022-11-21T02:53:14.262Z,80.92
2022-11-21T02:55:16.019Z,80.55
2022-11-21T02:57:17.642Z,80.53
2022-11-21T02:59:19.290Z,80.68
2022-11-21T03:01:21.020Z,81.54
2022-11-21T03:03:22.896Z,81.37
2022-11-21T03:05:24.876Z,81.36
2022-11-21T03:07:26.566Z,79.43
2022-11-21T03:09:28.236Z,79.61
2022-11-21T03:11:29.858Z,78.95
2022-11-21T03:13:37.524Z,76.79
2022-11-21T03:15:39.269Z,76.38
2022-11-21T03:17:41.444Z,76.90
2022-11-21T03:19:43.070Z,76.69
2022-11-21T03:21:44.698Z,76.38
2022-11-21T03:23:46.297Z,75.93
2022-11-21T03:25:47.827Z,75.15
2022-11-21T03:27:53.703Z,75.53
2022-11-21T03:29:55.261Z,74.91
2022-11-21T03:31:56.954Z,75.83
2022-11-21T03:33:58.610Z,76.08
2022-11-21T03:36:00.200Z,76.18
2022-11-21T03:38:01.829Z,75.36
2022-11-21T03:40:03.856Z,75.32
2022-11-21T03:42:05.519Z,75.15
2022-11-21T03:44:09.702Z,74.76
2022-11-21T03:46:11.455Z,74.58
2022-11-21T03:48:13.070Z,74.42
2022-11-21T03:50:18.547Z,74.64
2022-11-21T03:52:20.226Z,74.32
2022-11-21T03:54:21.800Z,75.22
2022-11-21T03:56:23.530Z,70.68
2022-11-21T03:58:25.131Z,69.79
2022-11-21T04:00:26.704Z,68.42
2022-11-21T04:02:28.670Z,69.27
2022-11-21T04:04:30.558Z,66.95
2022-11-21T04:06:32.470Z,67.91
2022-11-21T04:08:34.055Z,67.62
2022-11-21T04:10:35.695Z,65.92
2022-11-21T04:12:37.402Z,66.50
2022-11-21T04:14:39.076Z,67.63
2022-11-21T04:16:40.912Z,66.04
2022-11-21T04:18:42.512Z,65.22
2022-11-21T04:20:44.394Z,63.87
2022-11-21T04:22:46.030Z,63.47
2022-11-21T04:24:47.652Z,63.46
2022-11-21T04:26:49.271Z,63.86
2022-11-21T04:28:50.817Z,63.52
2022-11-21T04:30:54.967Z,62.00
2022-11-21T04:32:57.223Z,63.16
2022-11-21T04:34:59.077Z,62.78
2022-11-21T04:37:00.757Z,62.10
2022-11-21T04:39:02.460Z,62.68
2022-11-21T04:41:04.958Z,62.29
2022-11-21T04:43:06.866Z,61.85
2022-11-21T04:45:09.183Z,61.54
2022-11-21T04:47:10.847Z,61.48
2022-11-21T04:49:12.700Z,61.56
2022-11-21T04:51:14.436Z,61.90
2022-11-21T04:53:16.062Z,61.98
2022-11-21T04:55:18.373Z,60.21
2022-11-21T04:57:19.945Z,59.73
2022-11-21T04:59:21.587Z,61.37
2022-11-21T05:01:23.256Z,59.92
2022-11-21T05:03:24.913Z,62.29
2022-11-21T05:05:26.589Z,66.99
2022-11-21T05:07:28.262Z,65.91
2022-11-21T05:09:29.926Z,67.33
2022-11-21T05:11:50.215Z,70.39
2022-11-21T05:13:54.200Z,70.71
2022-11-21T05:15:58.955Z,71.79
2022-11-21T05:18:00.578Z,72.08
2022-11-21T05:20:02.164Z,71.27
2022-11-21T05:22:03.786Z,71.67
2022-11-21T05:24:05.594Z,71.31
2022-11-21T05:26:07.342Z,70.27
2022-11-21T05:28:09.273Z,72.55
2022-11-21T05:30:12.081Z,73.25
2022-11-21T05:32:13.690Z,73.50
2022-11-21T05:34:15.320Z,74.03
2022-11-21T05:36:16.988Z,73.33
2022-11-21T05:38:18.834Z,75.05
2022-11-21T05:40:20.413Z,74.71
2022-11-21T05:42:41.896Z,76.17
2022-11-21T05:44:43.467Z,76.52
2022-11-21T05:49:04.187Z,76.27
2022-11-21T05:51:06.138Z,76.90
2022-11-21T05:53:07.828Z,77.39
2022-11-21T05:55:09.517Z,78.37
2022-11-21T05:57:11.183Z,78.36
2022-11-21T05:59:12.836Z,78.40
2022-11-21T06:01:15.453Z,79.89
2022-11-21T06:03:30.281Z,80.11
2022-11-21T06:05:31.904Z,80.28
2022-11-21T06:07:33.613Z,81.10
2022-11-21T06:09:35.504Z,81.63
2022-11-21T06:11:37.075Z,81.51
2022-11-21T06:13:38.995Z,82.08
2022-11-21T06:15:40.649Z,82.45
2022-11-21T06:17:42.310Z,82.50
2022-11-21T06:19:43.884Z,82.53
2022-11-21T06:21:45.466Z,80.88
2022-11-21T06:23:47.995Z,81.44
2022-11-21T06:25:56.559Z,81.99
2022-11-21T06:28:00.285Z,82.08
2022-11-21T06:30:02.018Z,82.90
2022-11-21T06:32:03.681Z,82.23
2022-11-21T06:34:05.326Z,82.16
2022-11-21T06:36:14.695Z,82.40
2022-11-21T06:38:18.763Z,82.06
2022-11-21T06:40:20.374Z,82.50
2022-11-21T06:42:21.963Z,82.62
2022-11-21T06:44:23.591Z,83.25
2022-11-21T06:46:25.224Z,83.12
2022-11-21T06:48:26.920Z,84.75
2022-11-21T06:50:29.773Z,85.53
2022-11-21T06:52:35.526Z,85.30
2022-11-21T06:54:37.203Z,85.03
2022-11-21T06:56:38.825Z,85.38
2022-11-21T06:58:40.507Z,85.39
2022-11-21T07:00:42.364Z,85.88
2022-11-21T07:02:44.118Z,86.52
2022-11-21T07:04:45.957Z,87.20
2022-11-21T07:06:47.723Z,87.59
2022-11-21T07:09:17.716Z,87.51
2022-11-21T07:11:30.327Z,88.01
2022-11-21T07:13:32.692Z,88.02
2022-11-21T07:15:34.251Z,89.17
2022-11-21T07:17:35.889Z,88.78
2022-11-21T07:19:40.825Z,89.33
2022-11-21T07:21:43.224Z,88.53
2022-11-21T07:23:44.798Z,89.11
2022-11-21T07:25:46.463Z,88.74
2022-11-21T07:27:48.112Z,88.43
2022-11-21T07:29:49.728Z,88.14
2022-11-21T07:31:51.252Z,88.05
2022-11-21T07:33:52.851Z,87.77
2022-11-21T07:35:58.339Z,86.57
2022-11-21T07:38:00.644Z,85.97
2022-11-21T07:40:02.277Z,86.08
2022-11-21T07:42:03.903Z,85.55
2022-11-21T07:44:05.730Z,85.52
2022-11-21T07:46:07.360Z,85.88
2022-11-21T07:48:10.145Z,85.18
2022-11-21T07:50:12.166Z,85.17
2022-11-21T07:52:13.752Z,85.81
2022-11-21T07:54:15.372Z,84.01
2022-11-21T07:56:17.001Z,84.40
2022-11-21T07:58:18.686Z,84.94
2022-11-21T08:00:20.421Z,85.47
2022-11-21T08:02:27.247Z,84.16
2022-11-21T08:04:28.926Z,83.89
2022-11-21T08:06:30.535Z,84.16
2022-11-21T08:08:32.429Z,83.80
2022-11-21T08:10:36.852Z,83.36
2022-11-21T08:12:38.601Z,83.37
2022-11-21T08:14:40.531Z,83.24
2022-11-21T08:16:42.230Z,84.34
2022-11-21T08:18:43.861Z,83.56
2022-11-21T08:20:45.510Z,84.19
2022-11-21T08:22:47.319Z,83.59
2022-11-21T08:24:49.036Z,82.42
2022-11-21T08:26:50.902Z,81.91
2022-11-21T08:28:58.471Z,82.47
2022-11-21T08:31:04.801Z,82.06
2022-11-21T08:33:07.140Z,82.08
2022-11-21T08:35:09.016Z,82.46
2022-11-21T08:37:10.601Z,81.35
2022-11-21T08:39:12.245Z,81.29
2022-11-21T08:41:32.316Z,81.20
2022-11-21T08:43:33.914Z,81.42
2022-11-21T08:45:37.158Z,81.66
2022-11-21T08:47:38.855Z,81.54
2022-11-21T08:49:40.577Z,81.84
2022-11-21T08:51:42.692Z,81.56
2022-11-21T08:53:44.309Z,83.02
2022-11-21T08:55:45.885Z,82.42
2022-11-21T08:57:47.553Z,82.28
2022-11-21T08:59:49.077Z,81.46
2022-11-21T09:01:50.726Z,81.52
2022-11-21T09:03:52.446Z,80.38
2022-11-21T09:05:56.931Z,80.03
2022-11-21T09:07:59.053Z,80.26
2022-11-21T09:10:00.693Z,81.19
2022-11-21T09:12:02.872Z,80.71
2022-11-21T09:14:23.067Z,80.46
2022-11-21T09:16:43.059Z,80.76
2022-11-21T09:18:44.712Z,80.83
2022-11-21T09:20:46.425Z,81.90
2022-11-21T09:22:48.278Z,80.87
2022-11-21T09:24:49.869Z,81.47
2022-11-21T09:26:51.484Z,81.39
2022-11-21T09:28:53.119Z,80.92
2022-11-21T09:30:54.801Z,81.18
2022-11-21T09:33:04.613Z,82.18
2022-11-21T09:35:06.829Z,82.58
2022-11-21T09:37:08.447Z,82.78
2022-11-21T09:39:10.305Z,83.49
2022-11-21T09:41:44.603Z,82.29
2022-11-21T09:44:09.943Z,82.12
2022-11-21T09:46:15.313Z,82.31
2022-11-21T09:48:36.661Z,82.65
2022-11-21T09:50:49.328Z,82.73
2022-11-21T09:53:07.011Z,83.16
2022-11-21T09:55:27.827Z,83.72
2022-11-21T09:57:34.615Z,83.97
2022-11-21T09:59:39.003Z,84.51
2022-11-21T10:01:40.715Z,85.10
2022-11-21T10:03:45.147Z,84.46
2022-11-21T10:06:29.593Z,85.21
2022-11-21T10:08:48.201Z,84.45
2022-11-21T10:10:58.578Z,84.79
2022-11-21T10:13:43.491Z,84.44
2022-11-21T10:15:50.599Z,85.03
2022-11-21T10:18:10.696Z,84.38
2022-11-21T10:20:36.323Z,84.14
2022-11-21T10:23:11.598Z,84.78
2022-11-21T10:25:15.248Z,83.92
2022-11-21T10:27:36.575Z,83.48
2022-11-21T10:29:45.403Z,83.92
2022-11-21T10:31:47.325Z,83.49
2022-11-21T10:33:50.758Z,82.99
2022-11-21T10:35:55.854Z,82.75
2022-11-21T10:38:01.903Z,83.02
2022-11-21T10:40:42.631Z,83.17
2022-11-21T10:43:28.013Z,82.75
2022-11-21T10:45:29.618Z,81.66
2022-11-21T10:47:37.579Z,82.18
2022-11-21T10:49:39.713Z,82.71
2022-11-21T10:51:47.041Z,82.48
2022-11-21T10:54:22.506Z,82.93
2022-11-21T10:56:26.669Z,83.01
2022-11-21T10:58:42.449Z,83.55
2022-11-21T11:00:57.486Z,83.54
2022-11-21T11:03:04.873Z,83.80
2022-11-21T11:05:19.719Z,83.41
2022-11-21T11:07:27.422Z,84.03
2022-11-21T11:09:31.390Z,83.89
2022-11-21T11:11:32.947Z,82.80
2022-11-21T11:13:53.726Z,82.78
2022-11-21T11:16:11.628Z,83.27
2022-11-21T11:18:14.534Z,81.87
2022-11-21T11:20:38.179Z,82.19
2022-11-21T11:22:39.831Z,82.72
2022-11-21T11:24:56.205Z,82.66
2022-11-21T11:27:03.395Z,82.63
2022-11-21T11:29:15.205Z,82.63
2022-11-21T11:31:17.007Z,83.19
2022-11-21T11:33:48.032Z,83.68
2022-11-21T11:35:49.850Z,81.60
2022-11-21T11:38:00.899Z,82.01
2022-11-21T11:40:26.870Z,81.79
2022-11-21T11:42:56.385Z,81.18
2022-11-21T11:45:35.660Z,80.66
2022-11-21T11:47:54.825Z,80.00
2022-11-21T11:50:14.066Z,79.90
2022-11-21T11:52:16.012Z,80.95
2022-11-21T11:54:21.119Z,80.24
2022-11-21T11:56:26.453Z,79.47
2022-11-21T11:58:40.752Z,80.39
2022-11-21T12:00:46.776Z,80.81
2022-11-21T12:02:57.834Z,80.16
2022-11-21T12:05:14.691Z,79.81
2022-11-21T12:10:11.591Z,79.20
2022-11-21T12:12:31.967Z,79.35
2022-11-21T12:15:05.974Z,79.77
2022-11-21T12:17:09.214Z,80.01
2022-11-21T12:19:14.555Z,79.56
2022-11-21T12:21:20.958Z,79.39
2022-11-21T12:23:25.489Z,78.60
2022-11-21T12:25:32.755Z,79.81
2022-11-21T12:27:34.477Z,79.28
2022-11-21T12:30:04.963Z,78.67
2022-11-21T12:32:09.547Z,77.73
2022-11-21T12:34:42.442Z,77.33
2022-11-21T12:36:56.648Z,77.79
2022-11-21T12:39:13.040Z,77.52
2022-11-21T12:41:56.725Z,77.92
2022-11-21T12:44:35.279Z,77.40
2022-11-21T12:46:53.634Z,78.10
2022-11-21T12:49:25.278Z,78.03
2022-11-21T12:51:55.404Z,76.74
2022-11-21T12:54:23.298Z,76.75
2022-11-21T12:56:49.924Z,75.76
2022-11-21T12:58:53.333Z,76.83
2022-11-21T13:01:21.753Z,76.90
2022-11-21T13:03:29.882Z,75.62
2022-11-21T13:05:35.984Z,76.62
2022-11-21T13:07:38.279Z,76.50
2022-11-21T13:09:42.117Z,77.38
2022-11-21T13:11:59.794Z,77.14
2022-11-21T13:14:30.999Z,77.59
2022-11-21T13:16:39.641Z,76.00
2022-11-21T13:18:48.259Z,77.46
2022-11-21T13:20:51.938Z,76.90
2022-11-21T13:22:58.581Z,77.07
2022-11-21T13:25:01.280Z,76.41
2022-11-21T13:27:02.980Z,75.94
2022-11-21T13:29:11.595Z,75.22
2022-11-21T13:31:32.367Z,76.08
2022-11-21T13:33:39.882Z,76.58
2022-11-21T13:35:50.644Z,75.52
2022-11-21T13:37:55.284Z,73.28
2022-11-21T13:40:32.001Z,75.07
2022-11-21T13:45:52.888Z,74.45
2022-11-21T13:48:05.040Z,74.22
2022-11-21T13:50:25.511Z,73.98
2022-11-21T13:52:49.153Z,73.11
2022-11-21T13:55:02.363Z,73.73
2022-11-21T13:57:07.122Z,73.25
2022-11-21T13:59:30.680Z,74.04
2022-11-21T14:01:54.068Z,74.24
2022-11-21T14:04:21.680Z,73.90
2022-11-21T14:06:33.429Z,74.87
2022-11-21T14:08:35.692Z,75.28
2022-11-21T14:10:37.288Z,75.45
2022-11-21T14:12:44.679Z,76.52
2022-11-21T14:15:01.924Z,76.88
2022-11-21T14:17:14.388Z,76.44
2022-11-21T14:19:22.943Z,76.70
2022-11-21T14:21:28.150Z,76.15
2022-11-21T14:23:31.806Z,75.35
2022-11-21T14:25:37.891Z,75.33
2022-11-21T14:27:45.134Z,76.58
2022-11-21T14:29:47.062Z,76.20
2022-11-21T14:31:49.582Z,75.73
2022-11-21T14:33:57.631Z,76.34
2022-11-21T14:36:03.222Z,77.52
2022-11-21T14:38:06.578Z,77.10
2022-11-21T14:40:12.806Z,76.75
2022-11-21T14:42:17.527Z,77.74
2022-11-21T14:44:21.957Z,76.28
2022-11-21T14:46:26.776Z,76.54
2022-11-21T14:48:31.812Z,76.39
2022-11-21T14:50:34.893Z,76.87
2022-11-21T14:52:36.662Z,76.96
2022-11-21T14:55:06.323Z,75.74
2022-11-21T14:57:08.620Z,76.07
2022-11-21T14:59:19.907Z,75.40
2022-11-21T15:01:34.626Z,75.36
2022-11-21T15:03:36.352Z,76.59
2022-11-21T15:06:01.360Z,76.40
2022-11-21T15:08:17.109Z,75.49
2022-11-21T15:10:36.129Z,74.49
2022-11-21T15:12:48.501Z,73.24
2022-11-21T15:15:02.334Z,73.92
2022-11-21T15:17:06.355Z,73.43
2022-11-21T15:19:11.298Z,73.48
2022-11-21T15:21:15.198Z,75.36
2022-11-21T15:23:27.026Z,76.01
2022-11-21T15:25:30.873Z,75.87
2022-11-21T15:27:33.269Z,77.43
2022-11-21T15:29:34.981Z,77.57
2022-11-21T15:31:36.605Z,77.34
2022-11-21T15:34:27.355Z,76.72
2022-11-21T15:36:19.340Z,77.14
2022-11-21T15:38:28.211Z,76.51
2022-11-21T15:40:29.798Z,76.52
2022-11-21T15:42:31.634Z,75.51
2022-11-21T15:44:33.511Z,75.00
2022-11-21T15:46:42.375Z,74.66
2022-11-21T15:48:49.002Z,73.61
2022-11-21T15:50:54.518Z,74.40
2022-11-21T15:52:59.188Z,75.56
2022-11-21T15:55:00.809Z,74.62
2022-11-21T15:57:02.495Z,75.32
2022-11-21T15:59:04.142Z,74.88
2022-11-21T16:01:06.064Z,75.96
2022-11-21T16:03:07.727Z,75.14
2022-11-21T16:05:15.728Z,74.88
2022-11-21T16:07:17.706Z,74.76
2022-11-21T16:09:19.357Z,76.11
2022-11-21T16:11:28.838Z,75.58
2022-11-21T16:13:30.491Z,75.54
2022-11-21T16:15:32.214Z,73.55
2022-11-21T16:17:33.874Z,74.41
2022-11-21T16:19:35.526Z,74.77
2022-11-21T16:21:37.345Z,74.84
2022-11-21T16:23:39.432Z,75.35
2022-11-21T16:25:52.839Z,75.54
2022-11-21T16:27:54.436Z,75.78
2022-11-21T16:29:56.058Z,75.59
2022-11-21T16:31:57.893Z,76.18
2022-11-21T16:34:00.705Z,76.69
2022-11-21T16:36:02.420Z,76.36
2022-11-21T16:38:07.746Z,75.69
2022-11-21T16:40:10.999Z,76.12
2022-11-21T16:42:12.756Z,76.61
2022-11-21T16:44:15.739Z,77.09
2022-11-21T16:46:17.985Z,77.53
2022-11-21T16:48:20.869Z,78.47
2022-11-21T16:50:22.575Z,78.99
2022-11-21T16:52:24.162Z,80.60
2022-11-21T16:54:25.847Z,81.55
2022-11-21T16:56:28.073Z,81.05
2022-11-21T16:58:30.166Z,81.71
2022-11-21T17:00:32.759Z,82.26
2022-11-21T17:02:37.037Z,82.60
2022-11-21T17:04:38.660Z,82.39
2022-11-21T17:06:40.322Z,82.58
2022-11-21T17:08:42.130Z,82.06
2022-11-21T17:10:43.753Z,81.19
2022-11-21T17:12:45.451Z,79.95
2022-11-21T17:14:47.989Z,78.39
2022-11-21T17:16:50.974Z,78.13
2022-11-21T17:18:57.168Z,77.31
2022-11-21T17:20:59.205Z,77.38
2022-11-21T17:23:00.809Z,76.80
2022-11-21T17:25:02.477Z,76.68
2022-11-21T17:27:04.101Z,75.54
2022-11-21T17:29:05.769Z,75.45
2022-11-21T17:31:09.266Z,75.22
2022-11-21T17:33:11.057Z,74.72
2022-11-21T17:35:12.776Z,74.78
2022-11-21T17:37:14.916Z,74.27
2022-11-21T17:39:18.169Z,74.28
2022-11-21T17:41:21.283Z,73.87
2022-11-21T17:43:22.958Z,74.87
2022-11-21T17:45:24.561Z,73.93
2022-11-21T17:47:26.228Z,74.01
2022-11-21T17:49:30.404Z,74.25
2022-11-21T17:51:35.344Z,75.24
2022-11-21T17:53:39.064Z,75.69
2022-11-21T17:55:40.730Z,76.73
2022-11-21T17:57:42.335Z,75.97
2022-11-21T17:59:45.141Z,76.11
2022-11-21T18:01:46.965Z,75.15
2022-11-21T18:03:53.651Z,75.01
2022-11-21T18:06:13.758Z,75.29
2022-11-21T18:08:15.607Z,75.71
2022-11-21T18:10:41.594Z,74.44
2022-11-21T18:12:39.002Z,75.38
2022-11-21T18:14:40.673Z,74.42
2022-11-21T18:16:47.598Z,74.46
2022-11-21T18:18:52.951Z,74.21
2022-11-21T18:20:54.630Z,74.27
2022-11-21T18:22:56.652Z,74.77
2022-11-21T18:24:58.375Z,74.25
2022-11-21T18:26:59.967Z,74.48
2022-11-21T18:31:27.176Z,73.60
2022-11-21T18:33:28.727Z,73.38
2022-11-21T18:35:30.336Z,73.52
2022-11-21T18:37:34.243Z,73.96
2022-11-21T18:39:35.778Z,73.95
2022-11-21T18:41:40.038Z,73.66
2022-11-21T18:43:43.567Z,74.86
2022-11-21T18:45:45.161Z,74.58
2022-11-21T18:47:47.887Z,74.73
2022-11-21T18:49:50.055Z,74.09
2022-11-21T18:51:51.721Z,74.09
2022-11-21T18:53:58.339Z,73.38
2022-11-21T18:56:04.911Z,73.90
2022-11-21T18:58:06.658Z,73.62
2022-11-21T19:00:08.964Z,73.41
2022-11-21T19:02:10.646Z,72.90
2022-11-21T19:04:12.442Z,73.00
2022-11-21T19:06:20.485Z,72.88
2022-11-21T19:08:22.096Z,73.25
2022-11-21T19:12:45.662Z,72.00
2022-11-21T19:14:47.817Z,72.49
2022-11-21T19:16:49.546Z,72.72
2022-11-21T19:19:18.644Z,72.38
2022-11-21T19:21:14.637Z,72.98
2022-11-21T19:23:16.224Z,73.50
2022-11-21T19:25:17.915Z,73.84
2022-11-21T19:27:24.302Z,73.63
2022-11-21T19:29:27.197Z,72.80
2022-11-21T19:31:29.711Z,72.46
2022-11-21T19:33:32.548Z,72.16
2022-11-21T19:35:34.287Z,72.54
2022-11-21T19:37:36.447Z,72.20
2022-11-21T19:39:38.304Z,72.59
2022-11-21T19:41:40.329Z,72.21
2022-11-21T19:43:59.330Z,72.67
2022-11-21T19:46:04.055Z,72.65
2022-11-21T19:48:05.993Z,72.90
2022-11-21T19:50:08.073Z,72.67
2022-11-21T19:52:11.400Z,72.69
2022-11-21T19:54:13.997Z,72.46
2022-11-21T19:56:17.783Z,72.73
2022-11-21T19:58:19.980Z,72.88
2022-11-21T20:00:22.877Z,73.12
2022-11-21T20:02:25.036Z,72.41
2022-11-21T20:04:27.071Z,72.94
2022-11-21T20:06:37.712Z,72.77
2022-11-21T20:08:39.455Z,72.40
2022-11-21T20:11:07.318Z,71.97
2022-11-21T20:13:09.024Z,71.93
2022-11-21T20:15:10.866Z,72.04
2022-11-21T20:17:12.477Z,71.58
2022-11-21T20:19:18.456Z,71.94
2022-11-21T20:21:26.779Z,72.51
2022-11-21T20:23:28.446Z,72.56
2022-11-21T20:25:30.061Z,72.17
2022-11-21T20:27:31.684Z,71.72
2022-11-21T20:29:33.256Z,72.05
2022-11-21T20:31:37.336Z,71.80
2022-11-21T20:33:41.769Z,71.50
2022-11-21T20:35:44.353Z,71.29
2022-11-21T20:37:46.102Z,70.92
2022-11-21T20:39:48.355Z,71.81
2022-11-21T20:41:50.165Z,71.72
2022-11-21T20:46:25.124Z,71.20
2022-11-21T20:48:26.729Z,71.11
2022-11-21T20:51:11.020Z,71.20
2022-11-21T20:55:20.551Z,70.89
2022-11-21T20:57:22.588Z,70.72
2022-11-21T20:59:25.816Z,70.23
2022-11-21T21:01:27.895Z,70.35
2022-11-21T21:03:30.598Z,70.48
2022-11-21T21:05:33.146Z,70.16
2022-11-21T21:07:35.011Z,69.93
2022-11-21T21:09:36.800Z,70.33
2022-11-21T21:11:52.134Z,69.96
2022-11-21T21:13:54.395Z,70.17
2022-11-21T21:15:56.339Z,69.99
2022-11-21T21:17:57.922Z,70.51
2022-11-21T21:19:59.469Z,70.32
2022-11-21T21:22:01.283Z,70.55
2022-11-21T21:24:05.156Z,70.07
2022-11-21T21:26:20.014Z,70.52
2022-11-21T21:28:21.644Z,70.21
2022-11-21T21:30:23.570Z,70.26
2022-11-21T21:32:25.404Z,70.22
2022-11-21T21:34:27.005Z,69.86
2022-11-21T21:36:28.810Z,70.28
2022-11-21T21:38:30.507Z,70.11
2022-11-21T21:40:33.131Z,70.06
2022-11-21T21:42:34.735Z,69.21
2022-11-21T21:44:37.213Z,70.15
2022-11-21T21:46:39.020Z,69.47
2022-11-21T21:48:42.423Z,69.98
2022-11-21T21:50:44.065Z,69.86
2022-11-21T21:52:45.773Z,70.32
2022-11-21T21:54:47.722Z,69.74
2022-11-21T21:56:49.825Z,69.33
2022-11-21T21:58:51.739Z,69.76
2022-11-21T22:00:53.453Z,70.39
2022-11-21T22:02:55.054Z,69.72
2022-11-21T22:04:56.682Z,69.69
2022-11-21T22:06:59.704Z,69.14
2022-11-21T22:09:02.219Z,69.07
2022-11-21T22:11:09.266Z,69.47
2022-11-21T22:13:10.926Z,69.29
2022-11-21T22:15:12.670Z,69.27
2022-11-21T22:17:14.390Z,69.25
2022-11-21T22:19:16.115Z,69.25
2022-11-21T22:21:28.032Z,69.63
2022-11-21T22:23:30.672Z,70.20
2022-11-21T22:25:32.350Z,70.22
2022-11-21T22:27:34.041Z,70.13
2022-11-21T22:29:35.643Z,69.36
2022-11-21T22:31:37.588Z,68.60
2022-11-21T22:33:40.419Z,68.73
2022-11-21T22:35:42.064Z,68.59
2022-11-21T22:37:43.726Z,68.42
2022-11-21T22:39:45.322Z,68.50
2022-11-21T22:41:46.898Z,68.20
2022-11-21T22:43:57.315Z,68.19
2022-11-21T22:46:03.092Z,68.54
2022-11-21T22:48:05.809Z,67.59
2022-11-21T22:50:08.057Z,67.83
2022-11-21T22:52:09.709Z,67.42
2022-11-21T22:54:11.439Z,67.84
2022-11-21T22:56:13.083Z,67.59
2022-11-21T22:58:14.684Z,67.64
2022-11-21T23:00:17.182Z,67.16
2022-11-21T23:02:19.050Z,67.14
2022-11-21T23:04:20.655Z,67.88
2022-11-21T23:06:24.240Z,67.73
2022-11-21T23:08:26.033Z,67.99
2022-11-21T23:10:27.692Z,68.07
2022-11-21T23:12:30.689Z,67.66
2022-11-21T23:14:32.344Z,67.85
2022-11-21T23:16:33.935Z,67.55
2022-11-21T23:18:35.934Z,67.18
2022-11-21T23:20:37.592Z,66.63
2022-11-21T23:22:42.113Z,66.85
2022-11-21T23:24:43.711Z,67.28
2022-11-21T23:26:45.368Z,67.12
2022-11-21T23:28:47.267Z,67.53
2022-11-21T23:31:01.253Z,66.92
2022-11-21T23:33:21.280Z,66.96
2022-11-21T23:35:22.904Z,67.63
2022-11-21T23:37:24.591Z,67.78
2022-11-21T23:39:26.450Z,67.17
2022-11-21T23:41:28.085Z,67.22
2022-11-21T23:43:29.687Z,67.14
2022-11-21T23:45:31.320Z,66.58
2022-11-21T23:47:32.973Z,66.87
2022-11-21T23:49:34.557Z,67.16
2022-11-21T23:51:36.441Z,67.18
2022-11-21T23:53:38.060Z,67.40
2022-11-21T23:55:39.623Z,67.02
2022-11-21T23:57:41.339Z,67.13
2022-11-21T23:59:43.021Z,67.23
